createdAt,value
2018-06-05T00:00:17.836Z,0.00
2018-06-05T00:01:18.113Z,0.00
2018-06-05T00:02:18.310Z,0.00
2018-06-05T00:03:18.439Z,0.00
2018-06-05T00:04:18.473Z,0.00
2018-06-05T00:05:18.683Z,0.00
2018-06-05T00:06:18.929Z,0.00
2018-06-05T00:07:19.128Z,0.00
2018-06-05T00:08:19.317Z,0.00
2018-06-05T00:09:19.524Z,0.00
2018-06-05T00:10:19.591Z,0.00
2018-06-05T00:11:19.863Z,0.00
2018-06-05T00:12:23.888Z,0.00
2018-06-05T00:13:20.136Z,0.00
2018-06-05T00:14:20.452Z,0.00
2018-06-05T00:15:20.393Z,0.00
2018-06-05T00:16:20.619Z,0.00
2018-06-05T00:17:20.915Z,0.00
2018-06-05T00:18:20.950Z,0.00
2018-06-05T00:19:21.231Z,0.00
2018-06-05T00:20:21.376Z,0.00
2018-06-05T00:21:21.395Z,0.00
2018-06-05T00:22:21.607Z,0.00
2018-06-05T00:23:21.877Z,0.00
2018-06-05T00:24:22.057Z,0.00
2018-06-05T00:25:22.141Z,0.00
2018-06-05T00:26:22.201Z,0.00
2018-06-05T00:27:22.164Z,0.00
2018-06-05T00:28:26.547Z,0.00
2018-06-05T00:29:25.349Z,0.00
2018-06-05T00:30:25.719Z,0.00
2018-06-05T00:31:23.055Z,0.00
2018-06-05T00:32:23.293Z,0.00
2018-06-05T00:33:23.576Z,0.00
2018-06-05T00:34:23.648Z,0.00
2018-06-05T00:35:23.887Z,0.00
2018-06-05T00:36:23.988Z,0.00
2018-06-05T00:37:24.158Z,0.00
2018-06-05T00:38:24.320Z,0.00
2018-06-05T00:39:24.645Z,0.00
2018-06-05T00:40:27.372Z,0.00
2018-06-05T00:41:28.856Z,0.00
2018-06-05T00:42:26.095Z,0.00
2018-06-05T00:43:25.106Z,0.00
2018-06-05T00:44:25.296Z,0.00
2018-06-05T00:45:25.494Z,0.00
2018-06-05T00:46:25.755Z,0.00
2018-06-05T00:47:25.896Z,0.00
2018-06-05T00:48:25.811Z,0.00
2018-06-05T00:49:26.161Z,0.00
2018-06-05T00:50:26.405Z,0.00
2018-06-05T00:51:26.575Z,0.00
2018-06-05T00:52:26.732Z,0.00
2018-06-05T00:53:26.987Z,0.00
2018-06-05T00:54:27.148Z,0.00
2018-06-05T00:55:27.217Z,0.00
2018-06-05T00:56:28.522Z,0.00
2018-06-05T00:57:27.563Z,0.00
2018-06-05T00:58:34.088Z,0.00
2018-06-05T00:59:27.876Z,0.00
2018-06-05T01:00:28.063Z,0.00
2018-06-05T01:01:28.276Z,0.00
2018-06-05T01:02:28.486Z,0.00
2018-06-05T01:03:31.352Z,0.00
2018-06-05T01:04:28.759Z,0.00
2018-06-05T01:05:28.986Z,0.00
2018-06-05T01:06:29.031Z,0.00
2018-06-05T01:07:30.054Z,0.00
2018-06-05T01:08:29.414Z,0.00
2018-06-05T01:09:29.572Z,0.00
2018-06-05T01:10:29.821Z,0.00
2018-06-05T01:11:30.021Z,0.00
2018-06-05T01:12:30.294Z,0.00
2018-06-05T01:13:30.346Z,0.00
2018-06-05T01:14:30.621Z,0.00
2018-06-05T01:15:33.565Z,0.00
2018-06-05T01:16:30.874Z,0.00
2018-06-05T01:17:30.974Z,0.00
2018-06-05T01:18:35.805Z,0.00
2018-06-05T01:19:31.342Z,0.00
2018-06-05T01:20:31.543Z,0.00
2018-06-05T01:21:31.769Z,0.00
2018-06-05T01:22:31.905Z,0.00
2018-06-05T01:23:32.062Z,0.00
2018-06-05T01:24:32.180Z,0.00
2018-06-05T01:25:32.392Z,0.00
2018-06-05T01:26:32.585Z,0.00
2018-06-05T01:27:32.840Z,0.00
2018-06-05T01:28:32.952Z,0.00
2018-06-05T01:29:33.087Z,0.00
2018-06-05T01:30:36.624Z,0.00
2018-06-05T01:31:37.999Z,0.00
2018-06-05T01:32:33.436Z,0.00
2018-06-05T01:33:33.712Z,0.00
2018-06-05T01:34:38.422Z,0.00
2018-06-05T01:35:36.953Z,0.00
2018-06-05T01:36:34.322Z,0.00
2018-06-05T01:37:38.533Z,0.00
2018-06-05T01:38:38.002Z,0.00
2018-06-05T01:39:34.752Z,0.00
2018-06-05T01:40:34.897Z,0.00
2018-06-05T01:41:35.152Z,0.00
2018-06-05T01:42:35.371Z,0.00
2018-06-05T01:43:35.471Z,0.00
2018-06-05T01:44:39.106Z,0.00
2018-06-05T01:45:35.797Z,0.00
2018-06-05T01:46:35.981Z,0.00
2018-06-05T01:47:36.130Z,0.00
2018-06-05T01:48:36.386Z,0.00
2018-06-05T01:49:36.607Z,0.00
2018-06-05T01:50:36.657Z,0.00
2018-06-05T01:51:37.258Z,0.00
2018-06-05T01:52:37.019Z,0.00
2018-06-05T01:53:37.218Z,0.00
2018-06-05T01:54:37.403Z,0.00
2018-06-05T01:55:37.433Z,0.00
2018-06-05T01:56:37.626Z,0.00
2018-06-05T01:57:41.959Z,0.00
2018-06-05T01:58:37.933Z,0.00
2018-06-05T01:59:38.162Z,0.00
2018-06-05T02:00:38.278Z,0.00
2018-06-05T02:01:38.518Z,0.00
2018-06-05T02:02:38.757Z,0.00
2018-06-05T02:03:38.871Z,0.00
2018-06-05T02:04:39.090Z,0.00
2018-06-05T02:05:39.064Z,0.00
2018-06-05T02:06:39.340Z,0.00
2018-06-05T02:07:39.544Z,0.00
2018-06-05T02:08:39.787Z,0.00
2018-06-05T02:09:39.858Z,0.00
2018-06-05T02:10:42.730Z,0.00
2018-06-05T02:11:40.127Z,0.00
2018-06-05T02:12:40.364Z,0.00
2018-06-05T02:13:40.507Z,0.00
2018-06-05T02:14:40.780Z,0.00
2018-06-05T02:15:40.895Z,0.00
2018-06-05T02:16:41.026Z,0.00
2018-06-05T02:17:41.060Z,0.00
2018-06-05T02:18:45.029Z,0.00
2018-06-05T02:19:41.548Z,0.00
2018-06-05T02:20:41.602Z,0.00
2018-06-05T02:21:41.799Z,0.00
2018-06-05T02:22:45.959Z,0.00
2018-06-05T02:23:42.238Z,0.00
2018-06-05T02:24:42.278Z,0.00
2018-06-05T02:25:42.482Z,0.00
2018-06-05T02:26:44.214Z,0.00
2018-06-05T02:27:46.348Z,0.00
2018-06-05T02:28:46.894Z,0.00
2018-06-05T02:29:43.076Z,0.00
2018-06-05T02:30:43.124Z,0.00
2018-06-05T02:31:43.291Z,4.00
2018-06-05T02:32:43.524Z,4.00
2018-06-05T02:33:43.705Z,4.00
2018-06-05T02:34:43.884Z,0.00
2018-06-05T02:35:47.720Z,0.00
2018-06-05T02:36:45.087Z,4.00
2018-06-05T02:37:44.309Z,4.00
2018-06-05T02:38:44.501Z,4.00
2018-06-05T02:39:45.534Z,4.00
2018-06-05T02:40:44.974Z,4.00
2018-06-05T02:41:45.115Z,4.00
2018-06-05T02:42:45.322Z,8.00
2018-06-05T02:43:45.584Z,4.00
2018-06-05T02:44:45.662Z,8.00
2018-06-05T02:45:45.957Z,8.00
2018-06-05T02:46:46.191Z,12.00
2018-06-05T02:47:46.205Z,12.00
2018-06-05T02:48:46.166Z,12.00
2018-06-05T02:49:46.506Z,12.00
2018-06-05T02:50:46.700Z,16.00
2018-06-05T02:51:49.997Z,20.00
2018-06-05T02:52:48.236Z,20.00
2018-06-05T02:53:47.352Z,24.00
2018-06-05T02:54:47.447Z,24.00
2018-06-05T02:55:47.573Z,28.00
2018-06-05T02:56:47.778Z,32.00
2018-06-05T02:57:49.947Z,40.00
2018-06-05T02:58:50.172Z,40.00
2018-06-05T02:59:48.246Z,44.00
2018-06-05T03:00:48.505Z,52.00
2018-06-05T03:01:51.273Z,56.00
2018-06-05T03:02:48.770Z,64.00
2018-06-05T03:03:48.995Z,72.00
2018-06-05T03:04:49.188Z,76.00
2018-06-05T03:05:49.393Z,84.00
2018-06-05T03:06:49.560Z,88.00
2018-06-05T03:07:49.866Z,96.00
2018-06-05T03:08:49.950Z,108.00
2018-06-05T03:09:50.045Z,116.00
2018-06-05T03:10:50.152Z,124.00
2018-06-05T03:11:50.365Z,132.00
2018-06-05T03:12:50.597Z,140.00
2018-06-05T03:13:54.742Z,152.00
2018-06-05T03:14:50.855Z,160.00
2018-06-05T03:15:51.051Z,172.00
2018-06-05T03:16:51.290Z,184.00
2018-06-05T03:17:51.436Z,196.00
2018-06-05T03:18:51.654Z,208.00
2018-06-05T03:19:51.928Z,224.00
2018-06-05T03:20:52.048Z,236.00
2018-06-05T03:21:52.511Z,248.00
2018-06-05T03:22:52.272Z,264.00
2018-06-05T03:23:52.525Z,280.00
2018-06-05T03:24:53.315Z,296.00
2018-06-05T03:25:52.673Z,312.00
2018-06-05T03:26:52.641Z,332.00
2018-06-05T03:27:52.815Z,348.00
2018-06-05T03:28:52.996Z,368.00
2018-06-05T03:29:53.173Z,384.00
2018-06-05T03:30:53.357Z,404.00
2018-06-05T03:31:53.536Z,416.00
2018-06-05T03:32:53.711Z,440.00
2018-06-05T03:33:57.579Z,460.00
2018-06-05T03:34:54.401Z,480.00
2018-06-05T03:35:54.486Z,488.00
2018-06-05T03:36:54.717Z,496.00
2018-06-05T03:37:57.593Z,496.00
2018-06-05T03:38:55.011Z,476.00
2018-06-05T03:39:55.205Z,464.00
2018-06-05T03:40:55.474Z,452.00
2018-06-05T03:41:55.494Z,436.00
2018-06-05T03:42:56.057Z,400.00
2018-06-05T03:43:55.891Z,388.00
2018-06-05T03:44:56.065Z,384.00
2018-06-05T03:45:56.140Z,388.00
2018-06-05T03:46:56.360Z,384.00
2018-06-05T03:47:56.595Z,380.00
2018-06-05T03:48:56.663Z,380.00
2018-06-05T03:49:56.937Z,396.00
2018-06-05T03:50:57.178Z,404.00
2018-06-05T03:51:57.752Z,408.00
2018-06-05T03:52:57.343Z,412.00
2018-06-05T03:54:00.112Z,404.00
2018-06-05T03:54:57.472Z,412.00
2018-06-05T03:55:59.046Z,424.00
2018-06-05T03:56:58.448Z,432.00
2018-06-05T03:57:57.966Z,440.00
2018-06-05T03:58:58.203Z,444.00
2018-06-05T03:59:58.165Z,440.00
2018-06-05T04:00:58.351Z,444.00
2018-06-05T04:01:58.524Z,452.00
2018-06-05T04:02:58.714Z,472.00
2018-06-05T04:03:58.890Z,460.00
2018-06-05T04:04:59.067Z,460.00
2018-06-05T04:05:59.257Z,444.00
2018-06-05T04:06:59.432Z,440.00
2018-06-05T04:07:59.620Z,448.00
2018-06-05T04:08:59.796Z,452.00
2018-06-05T04:09:59.971Z,460.00
2018-06-05T04:11:00.231Z,484.00
2018-06-05T04:12:00.327Z,480.00
2018-06-05T04:13:00.507Z,468.00
2018-06-05T04:14:00.684Z,460.00
2018-06-05T04:15:00.874Z,472.00
2018-06-05T04:16:01.072Z,472.00
2018-06-05T04:17:01.246Z,488.00
2018-06-05T04:18:01.427Z,516.00
2018-06-05T04:19:01.622Z,552.00
2018-06-05T04:20:01.776Z,544.00
2018-06-05T04:21:01.955Z,564.00
2018-06-05T04:22:02.131Z,552.00
2018-06-05T04:23:02.318Z,576.00
2018-06-05T04:24:02.479Z,568.00
2018-06-05T04:25:02.662Z,568.00
2018-06-05T04:26:02.840Z,604.00
2018-06-05T04:27:03.046Z,624.00
2018-06-05T04:28:03.201Z,640.00
2018-06-05T04:29:03.372Z,616.00
2018-06-05T04:30:03.559Z,596.00
2018-06-05T04:31:03.738Z,604.00
2018-06-05T04:32:03.916Z,620.00
2018-06-05T04:33:04.088Z,628.00
2018-06-05T04:34:04.264Z,600.00
2018-06-05T04:35:04.474Z,580.00
2018-06-05T04:36:04.664Z,600.00
2018-06-05T04:37:04.821Z,620.00
2018-06-05T04:38:04.994Z,608.00
2018-06-05T04:39:05.172Z,584.00
2018-06-05T04:40:05.351Z,588.00
2018-06-05T04:41:05.526Z,592.00
2018-06-05T04:42:05.709Z,608.00
2018-06-05T04:43:05.883Z,600.00
2018-06-05T04:44:06.064Z,608.00
2018-06-05T04:45:06.241Z,644.00
2018-06-05T04:46:06.422Z,696.00
2018-06-05T04:47:06.595Z,728.00
2018-06-05T04:48:06.775Z,716.00
2018-06-05T04:49:06.954Z,704.00
2018-06-05T04:50:07.139Z,728.00
2018-06-05T04:51:07.335Z,740.00
2018-06-05T04:52:07.496Z,748.00
2018-06-05T04:53:07.671Z,744.00
2018-06-05T04:54:07.855Z,800.00
2018-06-05T04:55:08.102Z,804.00
2018-06-05T04:56:08.251Z,776.00
2018-06-05T04:57:08.439Z,756.00
2018-06-05T04:58:08.643Z,756.00
2018-06-05T04:59:08.825Z,764.00
2018-06-05T05:00:09.000Z,776.00
2018-06-05T05:01:09.187Z,824.00
2018-06-05T05:02:09.376Z,840.00
2018-06-05T05:03:09.555Z,868.00
2018-06-05T05:04:09.747Z,908.00
2018-06-05T05:05:09.979Z,884.00
2018-06-05T05:06:10.184Z,844.00
2018-06-05T05:07:10.352Z,832.00
2018-06-05T05:08:10.593Z,844.00
2018-06-05T05:09:10.722Z,848.00
2018-06-05T05:10:10.904Z,872.00
2018-06-05T05:11:11.083Z,920.00
2018-06-05T05:12:11.272Z,936.00
2018-06-05T05:13:11.485Z,936.00
2018-06-05T05:14:11.690Z,980.00
2018-06-05T05:15:11.908Z,1004.00
2018-06-05T05:16:13.227Z,1068.00
2018-06-05T05:17:12.257Z,1140.00
2018-06-05T05:18:12.441Z,1104.00
2018-06-05T05:19:12.619Z,1084.00
2018-06-05T05:20:13.614Z,1148.00
2018-06-05T05:21:12.995Z,1252.00
2018-06-05T05:22:13.177Z,1280.00
2018-06-05T05:23:13.380Z,1288.00
2018-06-05T05:24:13.530Z,1280.00
2018-06-05T05:25:13.702Z,1284.00
2018-06-05T05:26:13.898Z,1256.00
2018-06-05T05:27:14.071Z,1232.00
2018-06-05T05:28:14.262Z,1208.00
2018-06-05T05:29:14.449Z,1220.00
2018-06-05T05:30:14.630Z,1236.00
2018-06-05T05:31:14.881Z,1248.00
2018-06-05T05:32:15.001Z,1280.00
2018-06-05T05:33:15.183Z,1308.00
2018-06-05T05:34:15.361Z,1372.00
2018-06-05T05:35:15.542Z,1440.00
2018-06-05T05:36:15.718Z,1476.00
2018-06-05T05:37:15.895Z,1512.00
2018-06-05T05:38:16.078Z,1532.00
2018-06-05T05:39:16.371Z,1576.00
2018-06-05T05:40:16.434Z,1628.00
2018-06-05T05:41:16.610Z,1600.00
2018-06-05T05:42:16.794Z,1568.00
2018-06-05T05:43:16.977Z,1548.00
2018-06-05T05:44:17.166Z,1528.00
2018-06-05T05:45:17.323Z,1520.00
2018-06-05T05:46:17.503Z,1536.00
2018-06-05T05:47:17.676Z,1552.00
2018-06-05T05:48:17.857Z,1560.00
2018-06-05T05:49:18.038Z,1576.00
2018-06-05T05:50:18.220Z,1604.00
2018-06-05T05:51:18.398Z,1620.00
2018-06-05T05:52:18.575Z,1644.00
2018-06-05T05:53:18.759Z,1712.00
2018-06-05T05:54:18.934Z,1740.00
2018-06-05T05:55:19.110Z,1720.00
2018-06-05T05:56:19.499Z,1732.00
2018-06-05T05:57:19.515Z,1788.00
2018-06-05T05:58:19.709Z,1876.00
2018-06-05T05:59:19.889Z,1960.00
2018-06-05T06:00:20.067Z,1964.00
2018-06-05T06:01:20.250Z,2036.00
2018-06-05T06:02:20.423Z,2120.00
2018-06-05T06:03:20.642Z,2120.00
2018-06-05T06:04:20.706Z,2096.00
2018-06-05T06:05:20.884Z,2052.00
2018-06-05T06:06:21.072Z,1976.00
2018-06-05T06:07:21.246Z,1896.00
2018-06-05T06:08:21.419Z,1880.00
2018-06-05T06:09:21.640Z,1896.00
2018-06-05T06:10:21.825Z,1868.00
2018-06-05T06:11:22.000Z,1848.00
2018-06-05T06:12:22.176Z,1876.00
2018-06-05T06:13:22.351Z,1880.00
2018-06-05T06:14:22.530Z,1884.00
2018-06-05T06:15:22.707Z,1936.00
2018-06-05T06:16:22.906Z,2020.00
2018-06-05T06:17:23.087Z,2040.00
2018-06-05T06:18:23.267Z,2056.00
2018-06-05T06:19:23.499Z,2108.00
2018-06-05T06:20:23.655Z,2112.00
2018-06-05T06:21:23.830Z,2088.00
2018-06-05T06:22:24.005Z,2084.00
2018-06-05T06:23:24.190Z,2112.00
2018-06-05T06:24:24.359Z,2152.00
2018-06-05T06:25:24.540Z,2188.00
2018-06-05T06:26:24.723Z,2192.00
2018-06-05T06:27:24.903Z,2160.00
2018-06-05T06:28:25.082Z,2128.00
2018-06-05T06:29:25.257Z,2096.00
2018-06-05T06:30:25.439Z,2076.00
2018-06-05T06:31:25.611Z,2072.00
2018-06-05T06:32:25.795Z,2052.00
2018-06-05T06:33:25.966Z,2032.00
2018-06-05T06:34:30.512Z,2080.00
2018-06-05T06:35:26.299Z,2156.00
2018-06-05T06:36:28.127Z,2176.00
2018-06-05T06:37:26.667Z,2152.00
2018-06-05T06:38:26.847Z,2132.00
2018-06-05T06:39:27.019Z,2132.00
2018-06-05T06:40:27.201Z,2132.00
2018-06-05T06:41:27.373Z,2144.00
2018-06-05T06:42:27.551Z,2180.00
2018-06-05T06:43:27.733Z,2232.00
2018-06-05T06:44:27.913Z,2276.00
2018-06-05T06:45:28.122Z,2280.00
2018-06-05T06:46:28.335Z,2296.00
2018-06-05T06:47:28.513Z,2320.00
2018-06-05T06:48:28.721Z,2340.00
2018-06-05T06:49:28.878Z,2364.00
2018-06-05T06:50:29.089Z,2404.00
2018-06-05T06:51:29.240Z,2460.00
2018-06-05T06:52:29.420Z,2476.00
2018-06-05T06:53:29.605Z,2440.00
2018-06-05T06:54:29.845Z,2372.00
2018-06-05T06:55:30.005Z,2332.00
2018-06-05T06:56:30.176Z,2320.00
2018-06-05T06:57:30.361Z,2320.00
2018-06-05T06:58:30.534Z,2328.00
2018-06-05T06:59:30.715Z,2304.00
2018-06-05T07:00:30.907Z,2256.00
2018-06-05T07:01:31.546Z,2224.00
2018-06-05T07:02:35.491Z,2220.00
2018-06-05T07:03:35.592Z,2212.00
2018-06-05T07:04:35.135Z,2212.00
2018-06-05T07:05:33.311Z,2228.00
2018-06-05T07:06:33.682Z,2232.00
2018-06-05T07:07:34.413Z,2236.00
2018-06-05T07:08:34.711Z,2248.00
2018-06-05T07:09:33.174Z,2300.00
2018-06-05T07:10:35.669Z,2356.00
2018-06-05T07:11:34.296Z,2392.00
2018-06-05T07:12:34.101Z,2412.00
2018-06-05T07:13:32.925Z,2432.00
2018-06-05T07:14:34.421Z,2448.00
2018-06-05T07:15:36.244Z,2444.00
2018-06-05T07:16:33.240Z,2452.00
2018-06-05T07:17:33.715Z,2516.00
2018-06-05T07:18:33.658Z,2608.00
2018-06-05T07:19:35.553Z,2672.00
2018-06-05T07:20:36.005Z,2692.00
2018-06-05T07:21:37.885Z,2644.00
2018-06-05T07:22:36.489Z,2572.00
2018-06-05T07:23:34.411Z,2528.00
2018-06-05T07:24:34.592Z,2572.00
2018-06-05T07:25:34.837Z,2628.00
2018-06-05T07:26:34.887Z,2652.00
2018-06-05T07:27:35.062Z,2652.00
2018-06-05T07:28:35.235Z,2644.00
2018-06-05T07:29:35.420Z,2660.00
2018-06-05T07:30:35.605Z,2680.00
2018-06-05T07:31:35.800Z,2696.00
2018-06-05T07:32:35.978Z,2700.00
2018-06-05T07:33:36.160Z,2704.00
2018-06-05T07:34:36.344Z,2728.00
2018-06-05T07:35:36.517Z,2784.00
2018-06-05T07:36:36.728Z,2816.00
2018-06-05T07:37:36.897Z,2852.00
2018-06-05T07:38:37.090Z,2888.00
2018-06-05T07:39:37.841Z,2880.00
2018-06-05T07:40:37.465Z,2856.00
2018-06-05T07:41:37.654Z,2864.00
2018-06-05T07:42:37.831Z,2912.00
2018-06-05T07:43:38.008Z,2992.00
2018-06-05T07:44:38.197Z,3072.00
2018-06-05T07:45:39.136Z,3152.00
2018-06-05T07:46:38.572Z,3204.00
2018-06-05T07:47:38.743Z,3252.00
2018-06-05T07:48:38.922Z,3252.00
2018-06-05T07:49:39.107Z,3220.00
2018-06-05T07:50:39.285Z,3212.00
2018-06-05T07:51:39.496Z,3228.00
2018-06-05T07:52:39.815Z,3224.00
2018-06-05T07:53:39.831Z,3196.00
2018-06-05T07:54:40.009Z,3188.00
2018-06-05T07:55:40.256Z,3196.00
2018-06-05T07:56:40.309Z,3204.00
2018-06-05T07:57:40.492Z,3216.00
2018-06-05T07:58:40.686Z,3236.00
2018-06-05T07:59:40.875Z,3260.00
2018-06-05T08:00:41.054Z,3292.00
2018-06-05T08:01:41.260Z,3308.00
2018-06-05T08:02:41.436Z,3312.00
2018-06-05T08:03:41.624Z,3356.00
2018-06-05T08:04:41.799Z,3448.00
2018-06-05T08:05:46.988Z,3516.00
2018-06-05T08:06:42.161Z,3572.00
2018-06-05T08:07:42.529Z,3632.00
2018-06-05T08:08:42.489Z,3692.00
2018-06-05T08:09:42.669Z,3704.00
2018-06-05T08:10:42.844Z,3688.00
2018-06-05T08:11:43.034Z,3668.00
2018-06-05T08:12:43.210Z,3652.00
2018-06-05T08:13:43.387Z,3644.00
2018-06-05T08:14:43.579Z,3672.00
2018-06-05T08:15:43.758Z,3716.00
2018-06-05T08:16:43.935Z,3740.00
2018-06-05T08:17:44.414Z,3796.00
2018-06-05T08:18:44.218Z,3852.00
2018-06-05T08:19:44.399Z,3916.00
2018-06-05T08:20:44.588Z,3996.00
2018-06-05T08:21:44.764Z,4088.00
2018-06-05T08:22:44.941Z,4136.00
2018-06-05T08:23:45.719Z,4132.00
2018-06-05T08:24:45.279Z,4112.00
2018-06-05T08:25:45.456Z,4116.00
2018-06-05T08:26:45.638Z,4136.00
2018-06-05T08:27:45.815Z,4156.00
2018-06-05T08:28:45.998Z,4152.00
2018-06-05T08:29:46.203Z,4152.00
2018-06-05T08:30:46.374Z,4196.00
2018-06-05T08:31:46.591Z,4236.00
2018-06-05T08:32:46.741Z,4312.00
2018-06-05T08:33:46.912Z,4408.00
2018-06-05T08:34:47.096Z,4524.00
2018-06-05T08:35:47.305Z,4616.00
2018-06-05T08:36:47.568Z,4712.00
2018-06-05T08:37:47.666Z,4836.00
2018-06-05T08:38:47.795Z,4900.00
2018-06-05T08:39:47.976Z,4952.00
2018-06-05T08:40:48.155Z,5056.00
2018-06-05T08:41:48.337Z,5216.00
2018-06-05T08:42:48.530Z,5364.00
2018-06-05T08:43:48.703Z,5492.00
2018-06-05T08:44:49.270Z,5528.00
2018-06-05T08:45:49.024Z,5592.00
2018-06-05T08:46:49.220Z,5792.00
2018-06-05T08:47:49.412Z,5952.00
2018-06-05T08:48:49.565Z,5900.00
2018-06-05T08:49:49.759Z,5812.00
2018-06-05T08:50:49.975Z,5824.00
2018-06-05T08:51:50.136Z,5784.00
2018-06-05T08:52:50.318Z,5684.00
2018-06-05T08:53:50.495Z,5608.00
2018-06-05T08:54:50.670Z,5528.00
2018-06-05T08:55:50.864Z,5508.00
2018-06-05T08:56:51.032Z,5568.00
2018-06-05T08:57:51.210Z,5676.00
2018-06-05T08:58:51.383Z,5700.00
2018-06-05T08:59:51.611Z,5692.00
2018-06-05T09:00:52.738Z,5748.00
2018-06-05T09:01:51.911Z,5808.00
2018-06-05T09:02:52.813Z,5812.00
2018-06-05T09:03:53.995Z,5804.00
2018-06-05T09:04:52.448Z,5672.00
2018-06-05T09:05:52.647Z,5564.00
2018-06-05T09:06:52.823Z,5620.00
2018-06-05T09:07:53.010Z,5716.00
2018-06-05T09:08:53.207Z,5904.00
2018-06-05T09:09:53.372Z,6052.00
2018-06-05T09:10:53.609Z,6188.00
2018-06-05T09:11:53.736Z,6352.00
2018-06-05T09:12:53.925Z,6580.00
2018-06-05T09:13:54.101Z,6772.00
2018-06-05T09:14:54.287Z,6924.00
2018-06-05T09:15:54.471Z,7080.00
2018-06-05T09:16:54.655Z,7156.00
2018-06-05T09:17:54.839Z,7192.00
2018-06-05T09:18:55.018Z,7424.00
2018-06-05T09:19:55.199Z,7660.00
2018-06-05T09:20:55.379Z,7868.00
2018-06-05T09:21:55.562Z,8068.00
2018-06-05T09:22:55.742Z,8336.00
2018-06-05T09:23:55.916Z,8580.00
2018-06-05T09:24:56.094Z,8648.00
2018-06-05T09:25:56.270Z,8644.00
2018-06-05T09:26:56.460Z,8476.00
2018-06-05T09:27:56.637Z,8588.00
2018-06-05T09:28:56.871Z,8580.00
2018-06-05T09:29:57.021Z,9080.00
2018-06-05T09:30:57.198Z,9468.00
2018-06-05T09:31:57.542Z,9760.00
2018-06-05T09:32:57.596Z,10084.00
2018-06-05T09:33:57.785Z,11448.00
2018-06-05T09:34:57.959Z,13936.00
2018-06-05T09:35:58.155Z,12864.00
2018-06-05T09:36:58.346Z,13752.00
2018-06-05T09:37:58.531Z,21888.00
2018-06-05T09:38:58.726Z,16672.00
2018-06-05T09:39:58.905Z,13892.00
2018-06-05T09:40:59.090Z,16536.00
2018-06-05T09:41:59.274Z,17568.00
2018-06-05T09:42:59.463Z,15568.00
2018-06-05T09:43:59.692Z,17088.00
2018-06-05T09:44:59.829Z,18400.00
2018-06-05T09:46:00.029Z,19232.00
2018-06-05T09:47:00.221Z,31264.00
2018-06-05T09:48:00.405Z,42528.00
2018-06-05T09:49:00.594Z,43648.00
2018-06-05T09:50:00.784Z,21152.00
2018-06-05T09:51:00.969Z,39264.00
2018-06-05T09:52:01.199Z,43744.00
2018-06-05T09:53:03.205Z,30688.00
2018-06-05T09:54:01.538Z,17112.00
2018-06-05T09:55:01.900Z,22976.00
2018-06-05T09:56:01.842Z,20800.00
2018-06-05T09:57:02.512Z,20928.00
2018-06-05T09:58:04.245Z,20864.00
2018-06-05T09:59:04.079Z,20032.00
2018-06-05T10:00:04.392Z,18976.00
2018-06-05T10:01:03.429Z,17952.00
2018-06-05T10:02:04.862Z,16780.00
2018-06-05T10:03:07.930Z,15608.00
2018-06-05T10:04:05.728Z,15160.00
2018-06-05T10:05:03.546Z,14968.00
2018-06-05T10:06:03.728Z,14364.00
2018-06-05T10:07:03.920Z,13976.00
2018-06-05T10:08:06.504Z,13504.00
2018-06-05T10:09:07.611Z,13228.00
2018-06-05T10:10:05.815Z,12868.00
2018-06-05T10:11:05.788Z,12452.00
2018-06-05T10:12:05.818Z,12420.00
2018-06-05T10:13:05.781Z,12160.00
2018-06-05T10:14:07.735Z,12024.00
2018-06-05T10:15:06.953Z,11804.00
2018-06-05T10:16:08.997Z,11488.00
2018-06-05T10:17:07.504Z,11064.00
2018-06-05T10:18:07.357Z,10760.00
2018-06-05T10:19:07.916Z,10840.00
2018-06-05T10:20:05.963Z,10644.00
2018-06-05T10:21:08.272Z,10344.00
2018-06-05T10:22:06.364Z,10012.00
2018-06-05T10:23:06.543Z,9356.00
2018-06-05T10:24:06.750Z,9136.00
2018-06-05T10:25:06.945Z,8628.00
2018-06-05T10:26:07.135Z,8372.00
2018-06-05T10:27:07.363Z,8180.00
2018-06-05T10:28:07.662Z,8308.00
2018-06-05T10:29:09.505Z,8516.00
2018-06-05T10:30:07.855Z,8396.00
2018-06-05T10:31:09.153Z,7956.00
2018-06-05T10:32:08.201Z,7632.00
2018-06-05T10:33:08.383Z,7448.00
2018-06-05T10:34:08.566Z,7304.00
2018-06-05T10:35:08.759Z,7192.00
2018-06-05T10:36:08.936Z,7220.00
2018-06-05T10:37:09.117Z,7176.00
2018-06-05T10:38:09.365Z,7060.00
2018-06-05T10:39:09.433Z,6912.00
2018-06-05T10:40:09.628Z,6804.00
2018-06-05T10:41:09.828Z,6748.00
2018-06-05T10:42:10.005Z,6728.00
2018-06-05T10:43:10.190Z,6708.00
2018-06-05T10:44:10.376Z,6660.00
2018-06-05T10:45:10.561Z,6652.00
2018-06-05T10:46:10.795Z,6660.00
2018-06-05T10:47:10.936Z,6572.00
2018-06-05T10:48:11.120Z,6372.00
2018-06-05T10:49:11.299Z,6248.00
2018-06-05T10:50:11.548Z,6156.00
2018-06-05T10:51:11.838Z,6052.00
2018-06-05T10:52:11.874Z,5948.00
2018-06-05T10:53:12.055Z,5844.00
2018-06-05T10:54:12.270Z,5820.00
2018-06-05T10:55:12.475Z,5808.00
2018-06-05T10:56:12.660Z,5728.00
2018-06-05T10:57:12.857Z,5552.00
2018-06-05T10:58:13.125Z,5516.00
2018-06-05T10:59:13.166Z,5476.00
2018-06-05T11:00:13.355Z,5408.00
2018-06-05T11:01:13.532Z,5340.00
2018-06-05T11:02:13.724Z,5352.00
2018-06-05T11:03:13.904Z,5340.00
2018-06-05T11:04:14.088Z,5300.00
2018-06-05T11:05:14.279Z,5184.00
2018-06-05T11:06:14.461Z,5100.00
2018-06-05T11:07:14.647Z,5048.00
2018-06-05T11:08:14.832Z,4988.00
2018-06-05T11:09:15.018Z,4972.00
2018-06-05T11:10:15.208Z,4968.00
2018-06-05T11:11:15.415Z,4968.00
2018-06-05T11:12:16.856Z,4924.00
2018-06-05T11:13:15.764Z,4860.00
2018-06-05T11:14:15.942Z,4868.00
2018-06-05T11:15:16.138Z,4868.00
2018-06-05T11:16:16.301Z,4888.00
2018-06-05T11:17:16.494Z,4940.00
2018-06-05T11:18:16.687Z,4960.00
2018-06-05T11:19:16.866Z,4912.00
2018-06-05T11:20:17.058Z,4872.00
2018-06-05T11:21:18.116Z,4796.00
2018-06-05T11:22:17.459Z,4720.00
2018-06-05T11:23:17.637Z,4724.00
2018-06-05T11:24:17.814Z,4736.00
2018-06-05T11:25:17.993Z,4728.00
2018-06-05T11:26:18.325Z,4716.00
2018-06-05T11:27:18.321Z,4712.00
2018-06-05T11:28:18.542Z,4680.00
2018-06-05T11:29:18.709Z,4596.00
2018-06-05T11:30:18.901Z,4532.00
2018-06-05T11:31:19.092Z,4460.00
2018-06-05T11:32:19.275Z,4408.00
2018-06-05T11:33:19.457Z,4368.00
2018-06-05T11:34:19.663Z,4312.00
2018-06-05T11:35:19.914Z,4236.00
2018-06-05T11:36:20.066Z,4184.00
2018-06-05T11:37:20.338Z,4148.00
2018-06-05T11:38:20.358Z,4120.00
2018-06-05T11:39:20.446Z,4108.00
2018-06-05T11:40:20.796Z,4104.00
2018-06-05T11:41:20.896Z,4064.00
2018-06-05T11:42:21.069Z,4056.00
2018-06-05T11:43:21.327Z,4076.00
2018-06-05T11:44:21.489Z,4080.00
2018-06-05T11:45:21.799Z,4020.00
2018-06-05T11:46:22.093Z,3968.00
2018-06-05T11:47:22.048Z,3928.00
2018-06-05T11:48:22.720Z,3912.00
2018-06-05T11:49:22.403Z,3884.00
2018-06-05T11:50:23.240Z,3840.00
2018-06-05T11:51:22.818Z,3800.00
2018-06-05T11:52:23.022Z,3756.00
2018-06-05T11:53:23.220Z,3732.00
2018-06-05T11:54:23.421Z,3704.00
2018-06-05T11:55:23.589Z,3676.00
2018-06-05T11:56:24.097Z,3632.00
2018-06-05T11:57:24.379Z,3600.00
2018-06-05T11:58:24.179Z,3560.00
2018-06-05T11:59:24.383Z,3524.00
2018-06-05T12:00:24.568Z,3500.00
2018-06-05T12:01:25.457Z,3476.00
2018-06-05T12:02:26.966Z,3444.00
2018-06-05T12:03:26.169Z,3384.00
2018-06-05T12:04:28.854Z,3352.00
2018-06-05T12:05:26.790Z,3348.00
2018-06-05T12:06:27.892Z,3344.00
2018-06-05T12:07:28.562Z,3300.00
2018-06-05T12:08:29.907Z,3256.00
2018-06-05T12:09:26.825Z,3240.00
2018-06-05T12:10:27.732Z,3232.00
2018-06-05T12:11:27.560Z,3208.00
2018-06-05T12:12:28.825Z,3192.00
2018-06-05T12:13:27.954Z,3176.00
2018-06-05T12:14:29.914Z,3156.00
2018-06-05T12:15:28.781Z,3132.00
2018-06-05T12:16:29.079Z,3120.00
2018-06-05T12:17:27.387Z,3084.00
2018-06-05T12:18:33.298Z,3056.00
2018-06-05T12:19:29.812Z,3012.00
2018-06-05T12:20:30.476Z,2968.00
2018-06-05T12:21:28.064Z,2928.00
2018-06-05T12:22:28.227Z,2900.00
2018-06-05T12:23:28.429Z,2896.00
2018-06-05T12:24:28.623Z,2892.00
2018-06-05T12:25:28.777Z,2900.00
2018-06-05T12:26:28.982Z,2892.00